sensor_id;sensor_type;location;lat;lon;timestamp;temperature;humidity
27633;DHT22;15046;50.930;13.334;2024-01-06T00:02:08;3.00;99.90
27633;DHT22;15046;50.930;13.334;2024-01-06T00:04:34;3.00;99.90
27633;DHT22;15046;50.930;13.334;2024-01-06T00:07:00;3.00;99.90
27633;DHT22;15046;50.930;13.334;2024-01-06T00:09:26;3.00;99.90
27633;DHT22;15046;50.930;13.334;2024-01-06T00:11:51;2.90;99.90
27633;DHT22;15046;50.930;13.334;2024-01-06T00:14:17;2.90;99.90
27633;DHT22;15046;50.930;13.334;2024-01-06T00:16:43;2.90;99.90
27633;DHT22;15046;50.930;13.334;2024-01-06T00:19:08;2.90;99.90
27633;DHT22;15046;50.930;13.334;2024-01-06T00:21:34;2.80;99.90
27633;DHT22;15046;50.930;13.334;2024-01-06T00:24:00;2.80;99.90
27633;DHT22;15046;50.930;13.334;2024-01-06T00:26:26;2.70;99.90
27633;DHT22;15046;50.930;13.334;2024-01-06T00:28:51;2.80;99.90
27633;DHT22;15046;50.930;13.334;2024-01-06T00:31:17;2.70;99.90
27633;DHT22;15046;50.930;13.334;2024-01-06T00:33:43;2.70;99.90
27633;DHT22;15046;50.930;13.334;2024-01-06T00:36:09;2.60;99.90
27633;DHT22;15046;50.930;13.334;2024-01-06T00:38:35;2.60;99.90
27633;DHT22;15046;50.930;13.334;2024-01-06T00:41:01;2.60;99.90
27633;DHT22;15046;50.930;13.334;2024-01-06T00:43:27;2.50;99.90
27633;DHT22;15046;50.930;13.334;2024-01-06T00:45:53;2.50;99.90
27633;DHT22;15046;50.930;13.334;2024-01-06T00:48:18;2.50;99.90
27633;DHT22;15046;50.930;13.334;2024-01-06T00:50:44;2.40;99.90
27633;DHT22;15046;50.930;13.334;2024-01-06T00:53:11;2.40;99.90
27633;DHT22;15046;50.930;13.334;2024-01-06T00:55:36;2.40;99.90
27633;DHT22;15046;50.930;13.334;2024-01-06T00:58:02;2.40;99.90
27633;DHT22;15046;50.930;13.334;2024-01-06T01:00:28;2.30;99.90
27633;DHT22;15046;50.930;13.334;2024-01-06T01:02:54;2.30;99.90
27633;DHT22;15046;50.930;13.334;2024-01-06T01:05:19;2.30;99.90
27633;DHT22;15046;50.930;13.334;2024-01-06T01:07:45;2.30;99.90
27633;DHT22;15046;50.930;13.334;2024-01-06T01:10:11;2.20;99.90
27633;DHT22;15046;50.930;13.334;2024-01-06T01:12:37;2.20;99.90
27633;DHT22;15046;50.930;13.334;2024-01-06T01:15:03;2.20;99.90
27633;DHT22;15046;50.930;13.334;2024-01-06T01:17:29;2.20;99.90
27633;DHT22;15046;50.930;13.334;2024-01-06T01:19:55;2.10;99.90
27633;DHT22;15046;50.930;13.334;2024-01-06T01:22:21;2.10;99.90
27633;DHT22;15046;50.930;13.334;2024-01-06T01:24:46;2.10;99.90
27633;DHT22;15046;50.930;13.334;2024-01-06T01:27:12;2.00;99.90
27633;DHT22;15046;50.930;13.334;2024-01-06T01:29:38;2.00;99.90
27633;DHT22;15046;50.930;13.334;2024-01-06T01:32:04;2.00;99.90
27633;DHT22;15046;50.930;13.334;2024-01-06T01:34:30;2.00;99.90
27633;DHT22;15046;50.930;13.334;2024-01-06T01:36:56;1.90;99.90
27633;DHT22;15046;50.930;13.334;2024-01-06T01:39:22;1.90;99.90
27633;DHT22;15046;50.930;13.334;2024-01-06T01:41:47;1.90;99.90
27633;DHT22;15046;50.930;13.334;2024-01-06T01:44:13;1.90;99.90
27633;DHT22;15046;50.930;13.334;2024-01-06T01:46:39;1.90;99.90
27633;DHT22;15046;50.930;13.334;2024-01-06T01:49:05;1.90;99.90
27633;DHT22;15046;50.930;13.334;2024-01-06T01:51:34;1.80;99.90
27633;DHT22;15046;50.930;13.334;2024-01-06T01:54:01;1.80;99.90
27633;DHT22;15046;50.930;13.334;2024-01-06T01:56:28;1.80;99.90
27633;DHT22;15046;50.930;13.334;2024-01-06T01:58:54;1.80;99.90
27633;DHT22;15046;50.930;13.334;2024-01-06T02:01:20;1.80;99.90
27633;DHT22;15046;50.930;13.334;2024-01-06T02:03:46;1.80;99.90
27633;DHT22;15046;50.930;13.334;2024-01-06T02:06:12;1.70;99.90
27633;DHT22;15046;50.930;13.334;2024-01-06T02:08:38;1.70;99.90
27633;DHT22;15046;50.930;13.334;2024-01-06T02:11:05;1.70;99.90
27633;DHT22;15046;50.930;13.334;2024-01-06T02:13:34;1.70;99.90
27633;DHT22;15046;50.930;13.334;2024-01-06T02:16:04;1.70;99.90
27633;DHT22;15046;50.930;13.334;2024-01-06T02:18:33;1.70;99.90
27633;DHT22;15046;50.930;13.334;2024-01-06T02:21:00;1.70;99.90
27633;DHT22;15046;50.930;13.334;2024-01-06T02:23:30;1.70;99.90
27633;DHT22;15046;50.930;13.334;2024-01-06T02:25:56;1.70;99.90
27633;DHT22;15046;50.930;13.334;2024-01-06T02:28:22;1.70;99.90
27633;DHT22;15046;50.930;13.334;2024-01-06T02:30:49;1.70;99.90
27633;DHT22;15046;50.930;13.334;2024-01-06T02:33:15;1.70;99.90
27633;DHT22;15046;50.930;13.334;2024-01-06T02:35:40;1.60;99.90
27633;DHT22;15046;50.930;13.334;2024-01-06T02:38:07;1.60;99.90
27633;DHT22;15046;50.930;13.334;2024-01-06T02:40:34;1.60;99.90
27633;DHT22;15046;50.930;13.334;2024-01-06T02:42:59;1.60;99.90
27633;DHT22;15046;50.930;13.334;2024-01-06T02:45:25;1.60;99.90
27633;DHT22;15046;50.930;13.334;2024-01-06T02:47:51;1.60;99.90
27633;DHT22;15046;50.930;13.334;2024-01-06T02:50:17;1.60;99.90
27633;DHT22;15046;50.930;13.334;2024-01-06T02:52:44;1.50;99.90
27633;DHT22;15046;50.930;13.334;2024-01-06T02:55:11;1.50;99.90
27633;DHT22;15046;50.930;13.334;2024-01-06T02:57:38;1.50;99.90
27633;DHT22;15046;50.930;13.334;2024-01-06T03:00:04;1.50;99.90
27633;DHT22;15046;50.930;13.334;2024-01-06T03:02:30;1.50;99.90
27633;DHT22;15046;50.930;13.334;2024-01-06T03:04:56;1.50;99.90
27633;DHT22;15046;50.930;13.334;2024-01-06T03:07:22;1.50;99.90
27633;DHT22;15046;50.930;13.334;2024-01-06T03:09:47;1.50;99.90
27633;DHT22;15046;50.930;13.334;2024-01-06T03:12:13;1.50;99.90
27633;DHT22;15046;50.930;13.334;2024-01-06T03:14:39;1.60;99.90
27633;DHT22;15046;50.930;13.334;2024-01-06T03:17:05;1.60;99.90
27633;DHT22;15046;50.930;13.334;2024-01-06T03:19:31;1.60;99.90
27633;DHT22;15046;50.930;13.334;2024-01-06T03:21:56;1.60;99.90
27633;DHT22;15046;50.930;13.334;2024-01-06T03:24:23;1.60;99.90
27633;DHT22;15046;50.930;13.334;2024-01-06T03:26:49;1.60;99.90
27633;DHT22;15046;50.930;13.334;2024-01-06T03:29:15;1.60;99.90
27633;DHT22;15046;50.930;13.334;2024-01-06T03:31:45;1.50;99.90
27633;DHT22;15046;50.930;13.334;2024-01-06T03:34:11;1.50;99.90
27633;DHT22;15046;50.930;13.334;2024-01-06T03:36:40;1.50;99.90
27633;DHT22;15046;50.930;13.334;2024-01-06T03:39:06;1.40;99.90
27633;DHT22;15046;50.930;13.334;2024-01-06T03:41:32;1.40;99.90
27633;DHT22;15046;50.930;13.334;2024-01-06T03:43:58;1.30;99.90
27633;DHT22;15046;50.930;13.334;2024-01-06T03:46:23;1.30;99.90
27633;DHT22;15046;50.930;13.334;2024-01-06T03:48:49;1.20;99.90
27633;DHT22;15046;50.930;13.334;2024-01-06T03:51:15;1.20;99.90
27633;DHT22;15046;50.930;13.334;2024-01-06T03:53:41;1.20;99.90
27633;DHT22;15046;50.930;13.334;2024-01-06T03:56:07;1.20;99.90
27633;DHT22;15046;50.930;13.334;2024-01-06T03:58:33;1.10;99.90
27633;DHT22;15046;50.930;13.334;2024-01-06T04:00:59;1.10;99.90
27633;DHT22;15046;50.930;13.334;2024-01-06T04:03:25;1.10;99.90
27633;DHT22;15046;50.930;13.334;2024-01-06T04:05:50;1.00;99.90
27633;DHT22;15046;50.930;13.334;2024-01-06T04:08:17;1.00;99.90
27633;DHT22;15046;50.930;13.334;2024-01-06T04:10:43;1.10;99.90
27633;DHT22;15046;50.930;13.334;2024-01-06T04:13:10;1.10;99.90
27633;DHT22;15046;50.930;13.334;2024-01-06T04:15:36;1.10;99.90
27633;DHT22;15046;50.930;13.334;2024-01-06T04:18:03;1.10;99.90
27633;DHT22;15046;50.930;13.334;2024-01-06T04:20:29;1.10;99.90
27633;DHT22;15046;50.930;13.334;2024-01-06T04:22:55;1.20;99.90
27633;DHT22;15046;50.930;13.334;2024-01-06T04:25:21;1.20;99.90
27633;DHT22;15046;50.930;13.334;2024-01-06T04:27:47;1.20;99.90
27633;DHT22;15046;50.930;13.334;2024-01-06T04:30:14;1.20;99.90
27633;DHT22;15046;50.930;13.334;2024-01-06T04:32:41;1.20;99.90
27633;DHT22;15046;50.930;13.334;2024-01-06T04:35:07;1.20;99.90
27633;DHT22;15046;50.930;13.334;2024-01-06T04:37:33;1.20;99.90
27633;DHT22;15046;50.930;13.334;2024-01-06T04:39:58;1.20;99.90
27633;DHT22;15046;50.930;13.334;2024-01-06T04:42:24;1.10;99.90
27633;DHT22;15046;50.930;13.334;2024-01-06T04:44:51;1.10;99.90
27633;DHT22;15046;50.930;13.334;2024-01-06T04:47:17;1.20;99.90
27633;DHT22;15046;50.930;13.334;2024-01-06T04:49:43;1.20;99.90
27633;DHT22;15046;50.930;13.334;2024-01-06T04:52:10;1.30;99.90
27633;DHT22;15046;50.930;13.334;2024-01-06T04:54:35;1.40;99.90
27633;DHT22;15046;50.930;13.334;2024-01-06T04:57:01;1.50;99.90
27633;DHT22;15046;50.930;13.334;2024-01-06T04:59:27;1.50;99.90
27633;DHT22;15046;50.930;13.334;2024-01-06T05:01:53;1.50;99.90
27633;DHT22;15046;50.930;13.334;2024-01-06T05:04:19;1.60;99.90
27633;DHT22;15046;50.930;13.334;2024-01-06T05:06:45;1.60;99.90
27633;DHT22;15046;50.930;13.334;2024-01-06T05:09:11;1.70;99.90
27633;DHT22;15046;50.930;13.334;2024-01-06T05:11:37;1.70;99.90
27633;DHT22;15046;50.930;13.334;2024-01-06T05:14:02;1.70;99.90
27633;DHT22;15046;50.930;13.334;2024-01-06T05:16:28;1.80;99.90
27633;DHT22;15046;50.930;13.334;2024-01-06T05:18:54;1.70;99.90
27633;DHT22;15046;50.930;13.334;2024-01-06T05:21:20;1.70;99.90
27633;DHT22;15046;50.930;13.334;2024-01-06T05:23:46;1.70;99.90
27633;DHT22;15046;50.930;13.334;2024-01-06T05:26:11;1.70;99.90
27633;DHT22;15046;50.930;13.334;2024-01-06T05:28:39;1.70;99.90
27633;DHT22;15046;50.930;13.334;2024-01-06T05:31:05;1.70;99.90
27633;DHT22;15046;50.930;13.334;2024-01-06T05:33:30;1.60;99.90
27633;DHT22;15046;50.930;13.334;2024-01-06T05:35:56;1.60;99.90
27633;DHT22;15046;50.930;13.334;2024-01-06T05:38:22;1.60;99.90
27633;DHT22;15046;50.930;13.334;2024-01-06T05:40:48;1.60;99.90
27633;DHT22;15046;50.930;13.334;2024-01-06T05:43:13;1.50;99.90
27633;DHT22;15046;50.930;13.334;2024-01-06T05:45:39;1.50;99.90
27633;DHT22;15046;50.930;13.334;2024-01-06T05:48:10;1.50;99.90
27633;DHT22;15046;50.930;13.334;2024-01-06T05:50:39;1.40;99.90
27633;DHT22;15046;50.930;13.334;2024-01-06T05:53:06;1.40;99.90
27633;DHT22;15046;50.930;13.334;2024-01-06T05:55:32;1.40;99.90
27633;DHT22;15046;50.930;13.334;2024-01-06T05:57:58;1.50;99.90
27633;DHT22;15046;50.930;13.334;2024-01-06T06:00:23;1.50;99.90
27633;DHT22;15046;50.930;13.334;2024-01-06T06:02:49;1.50;99.90
27633;DHT22;15046;50.930;13.334;2024-01-06T06:05:15;1.50;99.90
27633;DHT22;15046;50.930;13.334;2024-01-06T06:07:41;1.50;99.90
27633;DHT22;15046;50.930;13.334;2024-01-06T06:10:09;1.50;99.90
27633;DHT22;15046;50.930;13.334;2024-01-06T06:12:35;1.50;99.90
27633;DHT22;15046;50.930;13.334;2024-01-06T06:15:05;1.50;99.90
27633;DHT22;15046;50.930;13.334;2024-01-06T06:17:32;1.50;99.90
27633;DHT22;15046;50.930;13.334;2024-01-06T06:19:58;1.50;99.90
27633;DHT22;15046;50.930;13.334;2024-01-06T06:22:25;1.40;99.90
27633;DHT22;15046;50.930;13.334;2024-01-06T06:24:59;1.40;99.90
27633;DHT22;15046;50.930;13.334;2024-01-06T06:27:25;1.40;99.90
27633;DHT22;15046;50.930;13.334;2024-01-06T06:29:52;1.40;99.90
27633;DHT22;15046;50.930;13.334;2024-01-06T06:32:18;1.40;99.90
27633;DHT22;15046;50.930;13.334;2024-01-06T06:34:43;1.40;99.90
27633;DHT22;15046;50.930;13.334;2024-01-06T06:37:09;1.30;99.90
27633;DHT22;15046;50.930;13.334;2024-01-06T06:39:35;1.30;99.90
27633;DHT22;15046;50.930;13.334;2024-01-06T06:42:02;1.30;99.90
27633;DHT22;15046;50.930;13.334;2024-01-06T06:44:28;1.30;99.90
27633;DHT22;15046;50.930;13.334;2024-01-06T06:46:55;1.30;99.90
27633;DHT22;15046;50.930;13.334;2024-01-06T06:49:21;1.20;99.90
27633;DHT22;15046;50.930;13.334;2024-01-06T06:51:46;1.20;99.90
27633;DHT22;15046;50.930;13.334;2024-01-06T06:54:14;1.20;99.90
27633;DHT22;15046;50.930;13.334;2024-01-06T06:56:43;1.20;99.90
27633;DHT22;15046;50.930;13.334;2024-01-06T06:59:10;1.20;99.90
27633;DHT22;15046;50.930;13.334;2024-01-06T07:01:36;1.20;99.90
27633;DHT22;15046;50.930;13.334;2024-01-06T07:04:02;1.10;99.90
27633;DHT22;15046;50.930;13.334;2024-01-06T07:06:29;1.10;99.90
27633;DHT22;15046;50.930;13.334;2024-01-06T07:08:56;1.10;99.90
27633;DHT22;15046;50.930;13.334;2024-01-06T07:11:21;1.10;99.90
27633;DHT22;15046;50.930;13.334;2024-01-06T07:13:50;1.10;99.90
27633;DHT22;15046;50.930;13.334;2024-01-06T07:16:15;1.10;99.90
27633;DHT22;15046;50.930;13.334;2024-01-06T07:18:41;1.10;99.90
27633;DHT22;15046;50.930;13.334;2024-01-06T07:21:07;1.10;99.90
27633;DHT22;15046;50.930;13.334;2024-01-06T07:23:33;1.20;99.90
27633;DHT22;15046;50.930;13.334;2024-01-06T07:25:59;1.30;99.90
27633;DHT22;15046;50.930;13.334;2024-01-06T07:28:25;1.30;99.90
27633;DHT22;15046;50.930;13.334;2024-01-06T07:30:51;1.40;99.90
27633;DHT22;15046;50.930;13.334;2024-01-06T07:33:16;1.30;99.90
27633;DHT22;15046;50.930;13.334;2024-01-06T07:35:42;1.40;99.90
27633;DHT22;15046;50.930;13.334;2024-01-06T07:38:11;1.40;99.90
27633;DHT22;15046;50.930;13.334;2024-01-06T07:40:37;1.40;99.90
27633;DHT22;15046;50.930;13.334;2024-01-06T07:43:03;1.40;99.90
27633;DHT22;15046;50.930;13.334;2024-01-06T07:45:30;1.50;99.90
27633;DHT22;15046;50.930;13.334;2024-01-06T07:47:57;1.60;99.90
27633;DHT22;15046;50.930;13.334;2024-01-06T07:50:23;1.60;99.90
27633;DHT22;15046;50.930;13.334;2024-01-06T07:52:49;1.70;99.90
27633;DHT22;15046;50.930;13.334;2024-01-06T07:55:14;1.70;99.90
27633;DHT22;15046;50.930;13.334;2024-01-06T07:57:41;1.70;99.90
27633;DHT22;15046;50.930;13.334;2024-01-06T08:00:07;1.80;99.90
27633;DHT22;15046;50.930;13.334;2024-01-06T08:02:33;1.80;99.90
27633;DHT22;15046;50.930;13.334;2024-01-06T08:04:59;1.90;99.90
27633;DHT22;15046;50.930;13.334;2024-01-06T08:07:24;1.90;99.90
27633;DHT22;15046;50.930;13.334;2024-01-06T08:09:50;2.00;99.90
27633;DHT22;15046;50.930;13.334;2024-01-06T08:12:16;2.00;99.90
27633;DHT22;15046;50.930;13.334;2024-01-06T08:14:42;2.10;99.90
27633;DHT22;15046;50.930;13.334;2024-01-06T08:17:07;2.10;99.90
27633;DHT22;15046;50.930;13.334;2024-01-06T08:19:33;2.10;99.90
27633;DHT22;15046;50.930;13.334;2024-01-06T08:22:01;2.20;99.90
27633;DHT22;15046;50.930;13.334;2024-01-06T08:24:27;2.20;99.90
27633;DHT22;15046;50.930;13.334;2024-01-06T08:26:52;2.20;99.90
27633;DHT22;15046;50.930;13.334;2024-01-06T08:29:18;2.20;99.90
27633;DHT22;15046;50.930;13.334;2024-01-06T08:31:45;2.20;99.90
27633;DHT22;15046;50.930;13.334;2024-01-06T08:34:11;2.20;99.90
27633;DHT22;15046;50.930;13.334;2024-01-06T08:36:37;2.20;99.90
27633;DHT22;15046;50.930;13.334;2024-01-06T08:39:03;2.20;99.90
27633;DHT22;15046;50.930;13.334;2024-01-06T08:41:29;2.30;99.90
27633;DHT22;15046;50.930;13.334;2024-01-06T08:43:55;2.30;99.90
27633;DHT22;15046;50.930;13.334;2024-01-06T08:46:21;2.50;99.90
27633;DHT22;15046;50.930;13.334;2024-01-06T08:48:46;2.60;99.90
27633;DHT22;15046;50.930;13.334;2024-01-06T08:51:12;2.70;99.90
27633;DHT22;15046;50.930;13.334;2024-01-06T08:53:38;2.90;99.90
27633;DHT22;15046;50.930;13.334;2024-01-06T08:56:04;3.10;99.90
27633;DHT22;15046;50.930;13.334;2024-01-06T08:58:29;3.30;99.90
27633;DHT22;15046;50.930;13.334;2024-01-06T09:00:55;3.40;99.90
27633;DHT22;15046;50.930;13.334;2024-01-06T09:03:21;3.60;99.90
27633;DHT22;15046;50.930;13.334;2024-01-06T09:05:52;3.80;99.90
27633;DHT22;15046;50.930;13.334;2024-01-06T09:08:18;4.00;99.90
27633;DHT22;15046;50.930;13.334;2024-01-06T09:10:44;4.10;99.90
27633;DHT22;15046;50.930;13.334;2024-01-06T09:13:10;4.20;99.90
27633;DHT22;15046;50.930;13.334;2024-01-06T09:15:36;4.20;99.90
27633;DHT22;15046;50.930;13.334;2024-01-06T09:18:01;4.40;99.90
27633;DHT22;15046;50.930;13.334;2024-01-06T09:20:28;4.70;99.90
27633;DHT22;15046;50.930;13.334;2024-01-06T09:22:54;5.00;99.90
27633;DHT22;15046;50.930;13.334;2024-01-06T09:25:20;5.30;99.90
27633;DHT22;15046;50.930;13.334;2024-01-06T09:27:48;5.50;99.90
27633;DHT22;15046;50.930;13.334;2024-01-06T09:30:14;5.70;99.90
27633;DHT22;15046;50.930;13.334;2024-01-06T09:32:40;5.90;99.90
27633;DHT22;15046;50.930;13.334;2024-01-06T09:35:06;6.10;99.90
27633;DHT22;15046;50.930;13.334;2024-01-06T09:37:32;6.30;99.90
27633;DHT22;15046;50.930;13.334;2024-01-06T09:39:57;6.40;99.90
27633;DHT22;15046;50.930;13.334;2024-01-06T09:42:24;6.50;99.90
27633;DHT22;15046;50.930;13.334;2024-01-06T09:44:50;6.50;99.90
27633;DHT22;15046;50.930;13.334;2024-01-06T09:47:18;6.50;99.90
27633;DHT22;15046;50.930;13.334;2024-01-06T09:49:49;6.60;99.90
27633;DHT22;15046;50.930;13.334;2024-01-06T09:52:17;6.70;99.90
27633;DHT22;15046;50.930;13.334;2024-01-06T09:54:51;6.80;99.90
27633;DHT22;15046;50.930;13.334;2024-01-06T09:57:18;6.80;99.90
27633;DHT22;15046;50.930;13.334;2024-01-06T09:59:47;6.70;99.90
27633;DHT22;15046;50.930;13.334;2024-01-06T10:02:15;6.60;99.90
27633;DHT22;15046;50.930;13.334;2024-01-06T10:04:41;6.50;99.90
27633;DHT22;15046;50.930;13.334;2024-01-06T10:07:08;6.40;99.90
27633;DHT22;15046;50.930;13.334;2024-01-06T10:09:33;6.30;99.90
27633;DHT22;15046;50.930;13.334;2024-01-06T10:11:59;6.20;99.90
27633;DHT22;15046;50.930;13.334;2024-01-06T10:14:25;6.10;99.90
27633;DHT22;15046;50.930;13.334;2024-01-06T10:16:52;6.10;99.90
27633;DHT22;15046;50.930;13.334;2024-01-06T10:19:18;6.10;99.90
27633;DHT22;15046;50.930;13.334;2024-01-06T10:21:44;6.10;99.90
27633;DHT22;15046;50.930;13.334;2024-01-06T10:24:10;6.00;99.90
27633;DHT22;15046;50.930;13.334;2024-01-06T10:26:36;6.00;99.90
27633;DHT22;15046;50.930;13.334;2024-01-06T10:29:02;6.00;99.90
27633;DHT22;15046;50.930;13.334;2024-01-06T10:31:29;6.10;99.90
27633;DHT22;15046;50.930;13.334;2024-01-06T10:33:55;6.10;99.90
27633;DHT22;15046;50.930;13.334;2024-01-06T10:36:23;6.10;99.90
27633;DHT22;15046;50.930;13.334;2024-01-06T10:38:49;6.00;99.90
27633;DHT22;15046;50.930;13.334;2024-01-06T10:41:16;6.00;99.90
27633;DHT22;15046;50.930;13.334;2024-01-06T10:43:42;6.00;99.90
27633;DHT22;15046;50.930;13.334;2024-01-06T10:46:09;6.00;99.90
27633;DHT22;15046;50.930;13.334;2024-01-06T10:48:36;6.00;99.90
27633;DHT22;15046;50.930;13.334;2024-01-06T10:51:08;6.00;99.90
27633;DHT22;15046;50.930;13.334;2024-01-06T10:53:34;5.90;99.90
27633;DHT22;15046;50.930;13.334;2024-01-06T10:56:05;5.90;99.90
27633;DHT22;15046;50.930;13.334;2024-01-06T10:58:34;5.80;99.90
27633;DHT22;15046;50.930;13.334;2024-01-06T11:01:03;5.80;99.90
27633;DHT22;15046;50.930;13.334;2024-01-06T11:03:29;5.70;99.90
27633;DHT22;15046;50.930;13.334;2024-01-06T11:05:58;5.70;99.90
27633;DHT22;15046;50.930;13.334;2024-01-06T11:08:25;5.70;99.90
27633;DHT22;15046;50.930;13.334;2024-01-06T11:10:52;5.70;99.90
27633;DHT22;15046;50.930;13.334;2024-01-06T11:13:22;5.70;99.90
27633;DHT22;15046;50.930;13.334;2024-01-06T11:15:50;5.60;99.90
27633;DHT22;15046;50.930;13.334;2024-01-06T11:21:16;5.50;99.90
27633;DHT22;15046;50.930;13.334;2024-01-06T11:26:32;5.40;99.90
27633;DHT22;15046;50.930;13.334;2024-01-06T11:28:58;5.40;99.90
27633;DHT22;15046;50.930;13.334;2024-01-06T11:31:32;5.40;99.90
27633;DHT22;15046;50.930;13.334;2024-01-06T11:34:12;5.30;99.90
27633;DHT22;15046;50.930;13.334;2024-01-06T11:36:39;5.30;99.90
27633;DHT22;15046;50.930;13.334;2024-01-06T11:39:05;5.30;99.90
27633;DHT22;15046;50.930;13.334;2024-01-06T11:41:51;5.20;99.90
27633;DHT22;15046;50.930;13.334;2024-01-06T11:44:23;5.20;99.90
27633;DHT22;15046;50.930;13.334;2024-01-06T11:46:49;5.20;99.90
27633;DHT22;15046;50.930;13.334;2024-01-06T11:49:16;5.10;99.90
27633;DHT22;15046;50.930;13.334;2024-01-06T11:51:42;5.10;99.90
27633;DHT22;15046;50.930;13.334;2024-01-06T11:54:09;5.10;99.90
27633;DHT22;15046;50.930;13.334;2024-01-06T11:56:35;5.10;99.90
27633;DHT22;15046;50.930;13.334;2024-01-06T11:59:01;5.10;99.90
27633;DHT22;15046;50.930;13.334;2024-01-06T12:01:27;5.10;99.90
27633;DHT22;15046;50.930;13.334;2024-01-06T12:03:54;5.10;99.90
27633;DHT22;15046;50.930;13.334;2024-01-06T12:06:21;5.10;99.90
27633;DHT22;15046;50.930;13.334;2024-01-06T12:08:49;5.10;99.90
27633;DHT22;15046;50.930;13.334;2024-01-06T12:11:17;5.10;99.90
27633;DHT22;15046;50.930;13.334;2024-01-06T12:13:46;5.10;99.90
27633;DHT22;15046;50.930;13.334;2024-01-06T12:16:12;5.10;99.90
27633;DHT22;15046;50.930;13.334;2024-01-06T12:18:37;5.20;99.90
27633;DHT22;15046;50.930;13.334;2024-01-06T12:21:03;5.20;99.90
27633;DHT22;15046;50.930;13.334;2024-01-06T12:23:29;5.20;99.90
27633;DHT22;15046;50.930;13.334;2024-01-06T12:25:55;5.20;99.90
27633;DHT22;15046;50.930;13.334;2024-01-06T12:28:21;5.20;99.90
27633;DHT22;15046;50.930;13.334;2024-01-06T12:30:48;5.20;99.90
27633;DHT22;15046;50.930;13.334;2024-01-06T12:33:14;5.20;99.90
27633;DHT22;15046;50.930;13.334;2024-01-06T12:35:40;5.20;99.90
27633;DHT22;15046;50.930;13.334;2024-01-06T12:38:08;5.20;99.90
27633;DHT22;15046;50.930;13.334;2024-01-06T12:40:38;5.20;99.90
27633;DHT22;15046;50.930;13.334;2024-01-06T12:43:07;5.20;99.90
27633;DHT22;15046;50.930;13.334;2024-01-06T12:45:32;5.20;99.90
27633;DHT22;15046;50.930;13.334;2024-01-06T12:47:58;5.20;99.90
27633;DHT22;15046;50.930;13.334;2024-01-06T12:50:24;5.20;99.90
27633;DHT22;15046;50.930;13.334;2024-01-06T12:52:50;5.20;99.90
27633;DHT22;15046;50.930;13.334;2024-01-06T12:55:15;5.20;99.90
27633;DHT22;15046;50.930;13.334;2024-01-06T12:57:42;5.20;99.90
27633;DHT22;15046;50.930;13.334;2024-01-06T13:00:09;5.20;99.90
27633;DHT22;15046;50.930;13.334;2024-01-06T13:02:37;5.20;99.90
27633;DHT22;15046;50.930;13.334;2024-01-06T13:05:04;5.20;99.90
27633;DHT22;15046;50.930;13.334;2024-01-06T13:07:30;5.30;99.90
27633;DHT22;15046;50.930;13.334;2024-01-06T13:09:55;5.30;99.90
27633;DHT22;15046;50.930;13.334;2024-01-06T13:12:21;5.30;99.90
27633;DHT22;15046;50.930;13.334;2024-01-06T13:14:49;5.30;99.90
27633;DHT22;15046;50.930;13.334;2024-01-06T13:17:16;5.40;99.90
27633;DHT22;15046;50.930;13.334;2024-01-06T13:19:42;5.40;99.90
27633;DHT22;15046;50.930;13.334;2024-01-06T13:22:08;5.40;99.90
27633;DHT22;15046;50.930;13.334;2024-01-06T13:24:33;5.40;99.90
27633;DHT22;15046;50.930;13.334;2024-01-06T13:26:59;5.30;99.90
27633;DHT22;15046;50.930;13.334;2024-01-06T13:29:28;5.30;99.90
27633;DHT22;15046;50.930;13.334;2024-01-06T13:31:54;5.30;99.90
27633;DHT22;15046;50.930;13.334;2024-01-06T13:34:20;5.30;99.90
27633;DHT22;15046;50.930;13.334;2024-01-06T13:36:47;5.40;99.90
27633;DHT22;15046;50.930;13.334;2024-01-06T13:39:12;5.30;99.90
27633;DHT22;15046;50.930;13.334;2024-01-06T13:41:46;5.30;99.90
27633;DHT22;15046;50.930;13.334;2024-01-06T13:44:13;5.20;99.90
27633;DHT22;15046;50.930;13.334;2024-01-06T13:46:39;5.20;99.90
27633;DHT22;15046;50.930;13.334;2024-01-06T13:49:13;5.20;99.90
27633;DHT22;15046;50.930;13.334;2024-01-06T13:51:43;5.20;99.90
27633;DHT22;15046;50.930;13.334;2024-01-06T13:54:09;5.20;99.90
27633;DHT22;15046;50.930;13.334;2024-01-06T13:56:35;5.10;99.90
27633;DHT22;15046;50.930;13.334;2024-01-06T13:59:02;5.10;99.90
27633;DHT22;15046;50.930;13.334;2024-01-06T14:01:29;5.10;99.90
27633;DHT22;15046;50.930;13.334;2024-01-06T14:03:55;5.00;99.90
27633;DHT22;15046;50.930;13.334;2024-01-06T14:06:26;5.00;99.90
27633;DHT22;15046;50.930;13.334;2024-01-06T14:08:56;5.00;99.90
27633;DHT22;15046;50.930;13.334;2024-01-06T14:11:22;5.00;99.90
27633;DHT22;15046;50.930;13.334;2024-01-06T14:13:48;5.00;99.90
27633;DHT22;15046;50.930;13.334;2024-01-06T14:16:18;5.00;99.90
27633;DHT22;15046;50.930;13.334;2024-01-06T14:18:44;4.90;99.90
27633;DHT22;15046;50.930;13.334;2024-01-06T14:21:10;4.90;99.90
27633;DHT22;15046;50.930;13.334;2024-01-06T14:23:36;4.90;99.90
27633;DHT22;15046;50.930;13.334;2024-01-06T14:26:03;4.90;99.90
27633;DHT22;15046;50.930;13.334;2024-01-06T14:28:29;4.80;99.90
27633;DHT22;15046;50.930;13.334;2024-01-06T14:30:55;4.80;99.90
27633;DHT22;15046;50.930;13.334;2024-01-06T14:33:21;4.80;99.90
27633;DHT22;15046;50.930;13.334;2024-01-06T14:35:47;4.70;99.90
27633;DHT22;15046;50.930;13.334;2024-01-06T14:38:13;4.70;99.90
27633;DHT22;15046;50.930;13.334;2024-01-06T14:40:39;4.70;99.90
27633;DHT22;15046;50.930;13.334;2024-01-06T14:43:04;4.60;99.90
27633;DHT22;15046;50.930;13.334;2024-01-06T14:45:31;4.60;99.90
27633;DHT22;15046;50.930;13.334;2024-01-06T14:47:57;4.60;99.90
27633;DHT22;15046;50.930;13.334;2024-01-06T14:50:23;4.50;99.90
27633;DHT22;15046;50.930;13.334;2024-01-06T14:52:49;4.50;99.90
27633;DHT22;15046;50.930;13.334;2024-01-06T14:55:15;4.50;99.90
27633;DHT22;15046;50.930;13.334;2024-01-06T14:57:41;4.50;99.90
27633;DHT22;15046;50.930;13.334;2024-01-06T15:00:08;4.50;99.90
27633;DHT22;15046;50.930;13.334;2024-01-06T15:02:37;4.40;99.90
27633;DHT22;15046;50.930;13.334;2024-01-06T15:05:04;4.40;99.90
27633;DHT22;15046;50.930;13.334;2024-01-06T15:07:30;4.40;99.90
27633;DHT22;15046;50.930;13.334;2024-01-06T15:10:00;4.40;99.90
27633;DHT22;15046;50.930;13.334;2024-01-06T15:12:26;4.40;99.90
27633;DHT22;15046;50.930;13.334;2024-01-06T15:14:53;4.30;99.90
27633;DHT22;15046;50.930;13.334;2024-01-06T15:17:19;4.20;99.90
27633;DHT22;15046;50.930;13.334;2024-01-06T15:19:48;4.20;99.90
27633;DHT22;15046;50.930;13.334;2024-01-06T15:22:14;4.10;99.90
27633;DHT22;15046;50.930;13.334;2024-01-06T15:24:40;4.10;99.90
27633;DHT22;15046;50.930;13.334;2024-01-06T15:27:08;4.10;99.90
27633;DHT22;15046;50.930;13.334;2024-01-06T15:29:34;4.10;99.90
27633;DHT22;15046;50.930;13.334;2024-01-06T15:31:59;4.00;99.90